createdAt,value
2022-07-25T00:01:33.248Z,49.00
2022-07-25T00:03:59.733Z,49.06
2022-07-25T00:06:26.594Z,49.21
2022-07-25T00:08:53.027Z,49.38
2022-07-25T00:11:19.556Z,49.50
2022-07-25T00:13:46.483Z,49.66
2022-07-25T00:16:13.114Z,49.87
2022-07-25T00:18:39.697Z,49.85
2022-07-25T00:21:06.438Z,49.92
2022-07-25T00:23:33.439Z,50.06
2022-07-25T00:26:01.317Z,50.16
2022-07-25T00:28:27.794Z,50.18
2022-07-25T00:30:55.311Z,50.24
2022-07-25T00:33:21.826Z,50.46
2022-07-25T00:35:48.200Z,50.46
2022-07-25T00:38:14.623Z,50.57
2022-07-25T00:40:41.238Z,50.69
2022-07-25T00:43:07.813Z,50.66
2022-07-25T00:45:34.257Z,50.77
2022-07-25T00:48:00.705Z,50.85
2022-07-25T00:50:27.152Z,50.99
2022-07-25T00:52:54.561Z,51.12
2022-07-25T00:55:23.902Z,51.07
2022-07-25T00:57:51.156Z,51.15
2022-07-25T01:00:18.132Z,51.38
2022-07-25T01:02:44.913Z,51.53
2022-07-25T01:05:11.845Z,51.73
2022-07-25T01:07:39.280Z,51.72
2022-07-25T01:10:07.675Z,51.82
2022-07-25T01:12:54.753Z,51.83
2022-07-25T01:15:23.741Z,51.93
2022-07-25T01:17:50.882Z,51.95
2022-07-25T01:20:25.339Z,52.03
2022-07-25T01:22:52.736Z,52.11
2022-07-25T01:25:19.251Z,52.04
2022-07-25T01:27:51.411Z,52.12
2022-07-25T01:30:23.979Z,52.27
2022-07-25T01:32:50.721Z,52.23
2022-07-25T01:35:17.387Z,52.30
2022-07-25T01:37:45.826Z,52.35
2022-07-25T01:40:13.300Z,52.38
2022-07-25T01:42:40.034Z,52.49
2022-07-25T01:45:08.740Z,52.45
2022-07-25T01:47:35.238Z,52.49
2022-07-25T01:50:01.898Z,52.63
2022-07-25T01:52:28.771Z,52.57
2022-07-25T01:54:55.303Z,52.73
2022-07-25T01:57:23.094Z,52.78
2022-07-25T01:59:59.180Z,52.98
2022-07-25T02:02:26.249Z,52.92
2022-07-25T02:04:53.174Z,52.98
2022-07-25T02:07:19.778Z,53.12
2022-07-25T02:09:46.629Z,53.14
2022-07-25T02:12:13.101Z,53.41
2022-07-25T02:14:40.292Z,53.37
2022-07-25T02:17:07.138Z,53.54
2022-07-25T02:19:33.744Z,53.56
2022-07-25T02:22:00.222Z,53.73
2022-07-25T02:24:26.812Z,53.70
2022-07-25T02:26:53.256Z,53.84
2022-07-25T02:29:21.876Z,53.93
2022-07-25T02:31:49.192Z,53.97
2022-07-25T02:34:15.639Z,53.95
2022-07-25T02:36:45.259Z,54.16
2022-07-25T02:39:11.906Z,54.21
2022-07-25T02:41:38.366Z,54.32
2022-07-25T02:44:06.080Z,54.40
2022-07-25T02:46:33.045Z,54.39
2022-07-25T02:49:00.125Z,54.31
2022-07-25T02:51:26.531Z,54.50
2022-07-25T02:53:58.193Z,54.58
2022-07-25T02:56:29.945Z,54.64
2022-07-25T02:58:59.414Z,54.64
2022-07-25T03:01:26.436Z,54.74
2022-07-25T03:03:53.060Z,54.76
2022-07-25T03:06:19.692Z,54.74
2022-07-25T03:08:47.402Z,54.76
2022-07-25T03:11:14.051Z,54.82
2022-07-25T03:13:40.499Z,54.85
2022-07-25T03:16:07.624Z,54.79
2022-07-25T03:18:34.051Z,54.98
2022-07-25T03:21:02.075Z,54.96
2022-07-25T03:23:30.442Z,54.95
2022-07-25T03:25:57.423Z,55.12
2022-07-25T03:28:24.782Z,55.15
2022-07-25T03:30:52.376Z,55.12
2022-07-25T03:33:19.147Z,55.09
2022-07-25T03:35:45.742Z,55.22
2022-07-25T03:38:12.202Z,55.33
2022-07-25T03:40:38.965Z,55.29
2022-07-25T03:43:05.790Z,55.30
2022-07-25T03:45:32.302Z,55.22
2022-07-25T03:47:58.852Z,55.14
2022-07-25T03:50:25.270Z,55.14
2022-07-25T03:52:51.784Z,54.85
2022-07-25T03:55:18.747Z,54.68
2022-07-25T03:57:45.520Z,54.46
2022-07-25T04:00:12.403Z,53.94
2022-07-25T04:02:39.489Z,53.63
2022-07-25T04:05:07.693Z,53.41
2022-07-25T04:07:35.114Z,53.36
2022-07-25T04:10:01.806Z,53.10
2022-07-25T04:12:28.346Z,53.02
2022-07-25T04:14:54.836Z,52.96
2022-07-25T04:17:21.530Z,53.14
2022-07-25T04:19:48.036Z,53.03
2022-07-25T04:22:16.275Z,52.69
2022-07-25T04:24:43.357Z,52.41
2022-07-25T04:27:09.801Z,52.48
2022-07-25T04:29:36.865Z,52.41
2022-07-25T04:32:03.676Z,51.97
2022-07-25T04:34:30.606Z,52.09
2022-07-25T04:36:57.427Z,51.77
2022-07-25T04:39:23.979Z,51.54
2022-07-25T04:41:50.968Z,51.36
2022-07-25T04:44:17.341Z,50.85
2022-07-25T04:46:43.952Z,50.64
2022-07-25T04:49:10.930Z,50.41
2022-07-25T04:51:37.491Z,50.53
2022-07-25T04:54:04.583Z,50.33
2022-07-25T04:56:31.402Z,50.00
2022-07-25T04:59:00.586Z,49.81
2022-07-25T05:01:29.734Z,49.39
2022-07-25T05:03:56.302Z,49.05
2022-07-25T05:06:25.964Z,49.03
2022-07-25T05:08:52.412Z,48.74
2022-07-25T05:11:19.249Z,48.59
2022-07-25T05:13:45.630Z,48.59
2022-07-25T05:16:12.291Z,48.32
2022-07-25T05:18:38.742Z,48.10
2022-07-25T05:21:05.112Z,47.78
2022-07-25T05:23:32.014Z,47.54
2022-07-25T05:25:58.463Z,47.18
2022-07-25T05:28:24.891Z,46.91
2022-07-25T05:30:51.417Z,46.43
2022-07-25T05:33:18.283Z,46.20
2022-07-25T05:35:46.322Z,45.77
2022-07-25T05:38:12.739Z,45.68
2022-07-25T05:40:39.209Z,45.26
2022-07-25T05:43:05.661Z,44.90
2022-07-25T05:45:32.236Z,45.03
2022-07-25T05:47:58.687Z,44.71
2022-07-25T05:50:25.144Z,44.53
2022-07-25T05:52:52.053Z,44.35
2022-07-25T05:55:19.226Z,44.10
2022-07-25T05:57:46.063Z,44.10
2022-07-25T06:00:13.009Z,43.85
2022-07-25T06:02:39.586Z,43.65
2022-07-25T06:05:06.334Z,43.22
2022-07-25T06:07:32.829Z,42.68
2022-07-25T06:09:59.343Z,42.07
2022-07-25T06:12:25.839Z,41.46
2022-07-25T06:14:52.704Z,41.25
2022-07-25T06:17:20.167Z,40.83
2022-07-25T06:19:46.801Z,40.38
2022-07-25T06:22:13.335Z,39.93
2022-07-25T06:24:41.284Z,39.66
2022-07-25T06:27:08.742Z,39.48
2022-07-25T06:29:35.258Z,39.25
2022-07-25T06:32:01.931Z,38.94
2022-07-25T06:34:29.960Z,38.71
2022-07-25T06:36:57.243Z,38.61
2022-07-25T06:39:25.203Z,38.35
2022-07-25T06:41:51.766Z,38.10
2022-07-25T06:44:18.477Z,37.65
2022-07-25T06:46:45.093Z,37.42
2022-07-25T06:49:11.712Z,37.32
2022-07-25T06:51:38.381Z,37.04
2022-07-25T06:54:05.021Z,36.86
2022-07-25T06:56:32.495Z,36.44
2022-07-25T06:58:59.837Z,36.20
2022-07-25T07:01:27.360Z,36.04
2022-07-25T07:03:54.019Z,35.95
2022-07-25T07:06:20.556Z,35.84
2022-07-25T07:08:48.306Z,35.62
2022-07-25T07:11:16.224Z,35.53
2022-07-25T07:13:42.896Z,35.19
2022-07-25T07:16:09.640Z,35.06
2022-07-25T07:18:37.223Z,34.88
2022-07-25T07:21:05.208Z,34.77
2022-07-25T07:23:33.004Z,34.45
2022-07-25T07:25:59.777Z,34.33
2022-07-25T07:28:26.480Z,34.36
2022-07-25T07:31:15.330Z,34.16
2022-07-25T07:33:39.787Z,33.90
2022-07-25T07:36:06.592Z,33.81
2022-07-25T07:38:33.995Z,33.68
2022-07-25T07:41:00.501Z,33.53
2022-07-25T07:43:30.365Z,33.35
2022-07-25T07:46:01.609Z,33.29
2022-07-25T07:48:30.402Z,33.17
2022-07-25T07:50:57.638Z,33.29
2022-07-25T07:53:44.147Z,33.18
2022-07-25T07:56:11.637Z,32.98
2022-07-25T07:58:44.810Z,32.91
2022-07-25T08:01:23.784Z,32.76
2022-07-25T08:03:52.818Z,32.33
2022-07-25T08:06:19.377Z,32.50
2022-07-25T08:08:45.973Z,32.54
2022-07-25T08:11:14.034Z,32.35
2022-07-25T08:13:40.536Z,32.34
2022-07-25T08:16:08.202Z,32.29
2022-07-25T08:18:34.732Z,32.25
2022-07-25T08:21:05.512Z,32.27
2022-07-25T08:23:34.824Z,32.26
2022-07-25T08:26:01.882Z,32.23
2022-07-25T08:28:28.429Z,32.21
2022-07-25T08:30:54.951Z,32.06
2022-07-25T08:33:21.842Z,32.05
2022-07-25T08:35:54.191Z,31.83
2022-07-25T08:38:23.299Z,31.73
2022-07-25T08:40:50.567Z,31.79
2022-07-25T08:43:18.247Z,31.79
2022-07-25T08:45:50.150Z,31.51
2022-07-25T08:48:19.485Z,31.45
2022-07-25T08:50:50.584Z,31.27
2022-07-25T08:53:35.763Z,31.27
2022-07-25T08:56:13.342Z,31.14
2022-07-25T08:58:43.786Z,31.03
2022-07-25T09:01:12.152Z,31.06
2022-07-25T09:03:40.903Z,31.10
2022-07-25T09:06:17.074Z,30.99
2022-07-25T09:08:59.783Z,30.88
2022-07-25T09:11:37.030Z,30.80
2022-07-25T09:14:13.187Z,30.72
2022-07-25T09:16:44.323Z,30.60
2022-07-25T09:19:16.139Z,30.61
2022-07-25T09:21:45.700Z,30.54
2022-07-25T09:24:16.626Z,30.45
2022-07-25T09:26:49.257Z,30.26
2022-07-25T09:29:22.019Z,30.23
2022-07-25T09:31:49.403Z,30.17
2022-07-25T09:34:44.073Z,30.15
2022-07-25T09:37:16.187Z,30.02
2022-07-25T09:39:47.151Z,30.09
2022-07-25T09:42:27.534Z,30.00
2022-07-25T09:45:02.367Z,29.71
2022-07-25T09:47:30.344Z,29.85
2022-07-25T09:49:57.228Z,29.72
2022-07-25T09:52:23.752Z,29.66
2022-07-25T09:54:50.819Z,29.38
2022-07-25T09:57:17.356Z,29.37
2022-07-25T09:59:44.382Z,29.24
2022-07-25T10:02:34.399Z,29.36
2022-07-25T10:05:18.191Z,29.26
2022-07-25T10:07:48.787Z,29.25
2022-07-25T10:10:26.323Z,29.32
2022-07-25T10:13:10.284Z,29.35
2022-07-25T10:15:48.436Z,29.16
2022-07-25T10:18:17.983Z,28.91
2022-07-25T10:20:46.081Z,28.93
2022-07-25T10:23:27.083Z,28.73
2022-07-25T10:26:09.112Z,28.63
2022-07-25T10:28:47.000Z,28.49
2022-07-25T10:31:18.023Z,28.58
2022-07-25T10:33:51.829Z,28.58
2022-07-25T10:36:20.691Z,28.48
2022-07-25T10:38:50.208Z,28.28
2022-07-25T10:41:16.874Z,28.27
2022-07-25T10:43:48.711Z,28.28
2022-07-25T10:46:22.632Z,27.93
2022-07-25T10:49:03.663Z,27.91
2022-07-25T10:51:56.072Z,28.08
2022-07-25T10:54:22.587Z,27.87
2022-07-25T10:56:58.179Z,28.04
2022-07-25T10:59:28.003Z,27.89
2022-07-25T11:01:54.961Z,27.64
2022-07-25T11:04:23.282Z,27.69
2022-07-25T11:06:49.965Z,27.40
2022-07-25T11:09:26.873Z,27.47
2022-07-25T11:11:56.911Z,27.29
2022-07-25T11:14:32.827Z,27.26
2022-07-25T11:17:19.622Z,27.14
2022-07-25T11:20:20.843Z,26.93
2022-07-25T11:22:55.213Z,26.86
2022-07-25T11:25:22.813Z,26.91
2022-07-25T11:27:56.669Z,27.04
2022-07-25T11:30:23.953Z,26.85
2022-07-25T11:32:55.536Z,26.81
2022-07-25T11:35:28.746Z,26.75
2022-07-25T11:37:56.623Z,26.59
2022-07-25T11:40:25.202Z,26.58
2022-07-25T11:42:53.886Z,26.55
2022-07-25T11:45:30.498Z,26.61
2022-07-25T11:48:07.041Z,26.57
2022-07-25T11:50:36.609Z,26.48
2022-07-25T11:53:10.834Z,26.35
2022-07-25T11:55:46.535Z,26.16
2022-07-25T11:58:14.021Z,26.30
2022-07-25T12:00:46.253Z,26.22
2022-07-25T12:03:19.606Z,26.08
2022-07-25T12:05:49.652Z,26.11
2022-07-25T12:08:22.668Z,26.08
2022-07-25T12:10:55.077Z,26.14
2022-07-25T12:13:27.189Z,26.10
2022-07-25T12:15:56.690Z,25.89
2022-07-25T12:18:23.562Z,25.78
2022-07-25T12:20:50.390Z,25.67
2022-07-25T12:23:16.910Z,25.58
2022-07-25T12:25:45.639Z,25.64
2022-07-25T12:28:13.341Z,25.48
2022-07-25T12:30:41.888Z,25.60
2022-07-25T12:33:11.372Z,25.38
2022-07-25T12:35:39.910Z,25.43
2022-07-25T12:38:07.553Z,25.40
2022-07-25T12:40:34.095Z,25.31
2022-07-25T12:43:00.639Z,25.39
2022-07-25T12:45:27.699Z,25.24
2022-07-25T12:47:55.010Z,25.23
2022-07-25T12:50:25.101Z,25.29
2022-07-25T12:52:51.913Z,25.30
2022-07-25T12:55:19.471Z,25.27
2022-07-25T12:57:50.309Z,25.02
2022-07-25T13:00:19.995Z,25.16
2022-07-25T13:02:48.459Z,25.23
2022-07-25T13:05:15.435Z,25.18
2022-07-25T13:07:42.120Z,25.04
2022-07-25T13:10:09.785Z,25.10
2022-07-25T13:12:36.759Z,25.03
2022-07-25T13:15:03.728Z,25.00
2022-07-25T13:17:32.336Z,24.93
2022-07-25T13:19:59.630Z,24.84
2022-07-25T13:22:27.493Z,24.94
2022-07-25T13:24:55.181Z,24.80
2022-07-25T13:27:23.302Z,24.82
2022-07-25T13:29:53.554Z,24.79
2022-07-25T13:32:20.657Z,24.66
2022-07-25T13:34:47.125Z,24.63
2022-07-25T13:37:14.004Z,24.46
2022-07-25T13:39:41.833Z,24.53
2022-07-25T13:42:08.714Z,24.53
2022-07-25T13:44:35.744Z,24.46
2022-07-25T13:47:02.335Z,24.28
2022-07-25T13:49:30.819Z,24.40
2022-07-25T13:51:57.315Z,24.29
2022-07-25T13:54:23.741Z,24.44
2022-07-25T13:56:50.170Z,24.42
2022-07-25T13:59:21.180Z,24.27
2022-07-25T14:01:50.573Z,24.25
2022-07-25T14:04:17.274Z,24.17
2022-07-25T14:06:43.877Z,24.14
2022-07-25T14:09:11.165Z,24.16
2022-07-25T14:11:38.072Z,24.12
2022-07-25T14:14:04.543Z,24.10
2022-07-25T14:16:33.176Z,24.19
2022-07-25T14:19:00.701Z,24.17
2022-07-25T14:21:28.485Z,24.11
2022-07-25T14:23:55.987Z,24.09
2022-07-25T14:26:22.494Z,24.04
2022-07-25T14:28:49.384Z,23.92
2022-07-25T14:31:16.853Z,24.00
2022-07-25T14:33:43.285Z,23.96
2022-07-25T14:36:10.661Z,23.82
2022-07-25T14:38:37.143Z,23.76
2022-07-25T14:41:06.684Z,23.65
2022-07-25T14:43:37.566Z,23.85
2022-07-25T14:46:04.828Z,23.73
2022-07-25T14:48:31.437Z,23.74
2022-07-25T14:50:57.927Z,23.70
2022-07-25T14:53:24.419Z,23.57
2022-07-25T14:55:50.900Z,23.67
2022-07-25T14:58:17.847Z,23.45
2022-07-25T15:00:45.498Z,23.51
2022-07-25T15:03:12.182Z,23.47
2022-07-25T15:05:40.584Z,23.52
2022-07-25T15:08:07.599Z,23.39
2022-07-25T15:10:34.583Z,23.38
2022-07-25T15:13:28.685Z,23.39
2022-07-25T15:15:49.508Z,23.25
2022-07-25T15:18:15.948Z,23.41
2022-07-25T15:20:43.610Z,23.41
2022-07-25T15:23:11.438Z,23.32
2022-07-25T15:26:01.051Z,23.27
2022-07-25T15:28:25.374Z,23.36
2022-07-25T15:30:51.858Z,23.28
2022-07-25T15:33:18.824Z,23.33
2022-07-25T15:35:46.586Z,23.23
2022-07-25T15:38:15.038Z,23.29
2022-07-25T15:40:45.230Z,23.18
2022-07-25T15:43:12.010Z,23.22
2022-07-25T15:45:40.257Z,23.26
2022-07-25T15:48:08.678Z,23.11
2022-07-25T15:50:36.385Z,23.22
2022-07-25T15:53:04.466Z,23.09
2022-07-25T15:55:32.830Z,22.98
2022-07-25T15:58:00.081Z,22.94
2022-07-25T16:00:29.826Z,22.90
2022-07-25T16:02:58.034Z,23.13
2022-07-25T16:05:25.038Z,23.05
2022-07-25T16:07:52.319Z,23.00
2022-07-25T16:10:18.835Z,22.83
2022-07-25T16:12:45.423Z,22.81
2022-07-25T16:15:12.147Z,22.85
2022-07-25T16:17:38.577Z,22.83
2022-07-25T16:20:08.612Z,22.79
2022-07-25T16:22:35.507Z,22.93
2022-07-25T16:25:03.660Z,22.90
2022-07-25T16:27:30.289Z,22.91
2022-07-25T16:29:56.881Z,22.92
2022-07-25T16:32:23.592Z,22.95
2022-07-25T16:34:50.025Z,22.89
2022-07-25T16:37:19.707Z,23.01
2022-07-25T16:39:46.221Z,22.97
2022-07-25T16:42:12.766Z,23.02
2022-07-25T16:44:39.252Z,23.01
2022-07-25T16:47:07.636Z,22.96
2022-07-25T16:49:34.308Z,23.03
2022-07-25T16:52:00.824Z,23.00
2022-07-25T16:54:27.786Z,23.11
2022-07-25T16:56:57.274Z,23.07
2022-07-25T16:59:26.717Z,23.09
2022-07-25T17:01:53.302Z,23.00
2022-07-25T17:04:19.980Z,23.13
2022-07-25T17:06:46.732Z,23.14
2022-07-25T17:09:13.806Z,23.09
2022-07-25T17:11:40.607Z,23.15
2022-07-25T17:14:07.501Z,23.02
2022-07-25T17:16:34.519Z,23.22
2022-07-25T17:19:03.419Z,23.23
2022-07-25T17:21:30.299Z,23.26
2022-07-25T17:23:56.784Z,23.36
2022-07-25T17:26:23.380Z,23.40
2022-07-25T17:28:50.475Z,23.41
2022-07-25T17:31:18.355Z,23.39
2022-07-25T17:33:44.868Z,23.49
2022-07-25T17:36:11.498Z,23.53
2022-07-25T17:38:42.487Z,23.68
2022-07-25T17:41:13.073Z,23.66
2022-07-25T17:43:40.847Z,23.80
2022-07-25T17:46:10.519Z,23.80
2022-07-25T17:48:37.047Z,23.87
2022-07-25T17:51:05.574Z,23.99
2022-07-25T17:53:32.539Z,24.04
2022-07-25T17:55:59.020Z,24.15
2022-07-25T17:58:25.515Z,24.28
2022-07-25T18:00:51.921Z,24.41
2022-07-25T18:03:18.568Z,24.55
2022-07-25T18:05:45.101Z,24.77
2022-07-25T18:08:11.519Z,24.57
2022-07-25T18:10:38.185Z,24.74
2022-07-25T18:13:04.754Z,24.81
2022-07-25T18:15:31.707Z,24.88
2022-07-25T18:17:58.791Z,24.99
2022-07-25T18:20:27.425Z,25.08
2022-07-25T18:22:58.011Z,25.14
2022-07-25T18:25:24.461Z,25.30
2022-07-25T18:27:50.932Z,25.31
2022-07-25T18:30:18.689Z,25.54
2022-07-25T18:32:45.298Z,25.65
2022-07-25T18:35:12.847Z,25.73
2022-07-25T18:37:39.420Z,26.00
2022-07-25T18:40:07.487Z,26.02
2022-07-25T18:42:35.401Z,26.20
2022-07-25T18:45:04.332Z,26.35
2022-07-25T18:47:34.476Z,26.55
2022-07-25T18:50:03.220Z,26.46
2022-07-25T18:52:34.469Z,26.63
2022-07-25T18:55:08.412Z,26.83
2022-07-25T18:57:37.003Z,26.98
2022-07-25T19:00:07.068Z,27.04
2022-07-25T19:02:34.341Z,27.21
2022-07-25T19:05:01.314Z,27.39
2022-07-25T19:07:30.582Z,27.73
2022-07-25T19:09:57.081Z,28.06
2022-07-25T19:12:26.031Z,28.18
2022-07-25T19:14:54.061Z,28.18
2022-07-25T19:17:20.573Z,28.34
2022-07-25T19:19:47.078Z,28.44
2022-07-25T19:22:13.548Z,28.98
2022-07-25T19:24:40.120Z,29.13
2022-07-25T19:27:06.668Z,29.27
2022-07-25T19:29:33.479Z,29.85
2022-07-25T19:32:00.014Z,29.88
2022-07-25T19:34:29.582Z,30.31
2022-07-25T19:36:56.314Z,30.50
2022-07-25T19:39:23.961Z,30.85
2022-07-25T19:41:53.651Z,30.92
2022-07-25T19:44:23.257Z,31.47
2022-07-25T19:46:49.932Z,31.50
2022-07-25T19:49:16.660Z,31.43
2022-07-25T19:51:43.294Z,31.67
2022-07-25T19:54:10.740Z,31.30
2022-07-25T19:56:37.727Z,31.62
2022-07-25T19:59:06.113Z,31.80
2022-07-25T20:01:36.226Z,32.15
2022-07-25T20:04:05.474Z,32.30
2022-07-25T20:06:36.300Z,32.45
2022-07-25T20:09:03.900Z,32.49
2022-07-25T20:11:30.747Z,32.79
2022-07-25T20:13:57.406Z,32.84
2022-07-25T20:16:24.148Z,33.13
2022-07-25T20:18:51.201Z,32.99
2022-07-25T20:21:18.019Z,33.27
2022-07-25T20:23:47.556Z,33.49
2022-07-25T20:26:14.900Z,34.00
2022-07-25T20:28:41.777Z,34.12
2022-07-25T20:31:09.205Z,34.34
2022-07-25T20:33:36.226Z,34.35
2022-07-25T20:36:03.852Z,34.44
2022-07-25T20:38:32.005Z,34.53
2022-07-25T20:40:59.948Z,34.55
2022-07-25T20:43:27.939Z,34.66
2022-07-25T20:45:54.680Z,34.91
2022-07-25T20:48:21.215Z,35.06
2022-07-25T20:50:48.005Z,35.15
2022-07-25T20:53:14.628Z,35.27
2022-07-25T20:55:41.194Z,35.40
2022-07-25T20:58:07.674Z,35.67
2022-07-25T21:00:34.440Z,35.80
2022-07-25T21:03:02.633Z,35.79
2022-07-25T21:05:29.055Z,36.01
2022-07-25T21:07:56.287Z,36.13
2022-07-25T21:10:23.244Z,35.99
2022-07-25T21:12:49.744Z,36.19
2022-07-25T21:15:16.252Z,36.40
2022-07-25T21:17:43.521Z,36.54
2022-07-25T21:20:13.409Z,36.47
2022-07-25T21:22:40.958Z,36.59
2022-07-25T21:25:08.884Z,36.57
2022-07-25T21:27:36.619Z,36.87
2022-07-25T21:30:05.228Z,37.04
2022-07-25T21:32:32.007Z,37.13
2022-07-25T21:34:59.189Z,37.07
2022-07-25T21:37:25.947Z,37.16
2022-07-25T21:39:52.596Z,37.05
2022-07-25T21:42:19.144Z,37.02
2022-07-25T21:44:45.640Z,37.14
2022-07-25T21:47:12.185Z,37.11
2022-07-25T21:49:57.399Z,37.09
2022-07-25T21:52:29.829Z,37.26
2022-07-25T21:55:04.741Z,37.36
2022-07-25T21:57:31.431Z,37.38
2022-07-25T21:59:58.060Z,37.44
2022-07-25T22:02:25.075Z,37.56
2022-07-25T22:04:51.583Z,37.83
2022-07-25T22:07:19.091Z,37.83
2022-07-25T22:09:45.508Z,37.94
2022-07-25T22:12:12.094Z,38.03
2022-07-25T22:14:38.652Z,38.02
2022-07-25T22:17:05.267Z,38.09
2022-07-25T22:19:32.218Z,38.25
2022-07-25T22:21:58.763Z,38.43
2022-07-25T22:24:25.261Z,38.56
2022-07-25T22:26:51.637Z,38.52
2022-07-25T22:29:18.473Z,38.61
2022-07-25T22:31:45.040Z,38.69
2022-07-25T22:34:11.951Z,38.65
2022-07-25T22:36:38.385Z,38.97
2022-07-25T22:39:05.244Z,39.08
2022-07-25T22:41:32.029Z,39.02
2022-07-25T22:44:00.078Z,39.32
2022-07-25T22:46:31.008Z,39.46
2022-07-25T22:48:58.449Z,39.56
2022-07-25T22:51:25.971Z,39.57
2022-07-25T22:53:53.211Z,39.80
2022-07-25T22:56:20.186Z,39.94
2022-07-25T22:58:47.023Z,40.18
2022-07-25T23:01:17.140Z,40.33
2022-07-25T23:03:43.774Z,40.26
2022-07-25T23:06:10.940Z,40.55
2022-07-25T23:08:37.480Z,40.57
2022-07-25T23:11:05.521Z,40.87
2022-07-25T23:13:32.946Z,40.94
2022-07-25T23:15:59.584Z,41.13
2022-07-25T23:18:26.088Z,41.09
2022-07-25T23:20:52.586Z,41.38
2022-07-25T23:23:20.397Z,41.61
2022-07-25T23:25:46.925Z,41.64
2022-07-25T23:28:13.314Z,41.75
2022-07-25T23:30:40.698Z,41.80
2022-07-25T23:33:08.177Z,41.90
2022-07-25T23:35:34.743Z,41.92
2022-07-25T23:38:01.494Z,42.19
2022-07-25T23:40:27.908Z,42.36
2022-07-25T23:42:54.357Z,42.39
2022-07-25T23:45:22.143Z,42.46
2022-07-25T23:47:52.047Z,42.57
2022-07-25T23:50:19.601Z,42.64
2022-07-25T23:52:45.994Z,42.68
2022-07-25T23:55:12.493Z,42.61
2022-07-25T23:57:39.107Z,42.61
